sensor_id;sensor_type;location;lat;lon;timestamp;pressure;altitude;pressure_sealevel;temperature;humidity
76195;BME280;64964;48.694;21.206;2023-06-19T00:01:59;97989.69;;;16.64;67.73
76195;BME280;64964;48.694;21.206;2023-06-19T00:04:24;97987.03;;;16.64;67.45
76195;BME280;64964;48.694;21.206;2023-06-19T00:06:50;97982.72;;;16.56;67.65
76195;BME280;64964;48.694;21.206;2023-06-19T00:09:16;97991.75;;;16.62;67.69
76195;BME280;64964;48.694;21.206;2023-06-19T00:11:42;97987.63;;;16.59;67.53
76195;BME280;64964;48.694;21.206;2023-06-19T00:14:07;97987.84;;;16.58;67.63
76195;BME280;64964;48.694;21.206;2023-06-19T00:16:33;97994.63;;;16.60;67.58
76195;BME280;64964;48.694;21.206;2023-06-19T00:18:58;97987.44;;;16.61;67.50
76195;BME280;64964;48.694;21.206;2023-06-19T00:21:25;97982.09;;;16.54;67.63
76195;BME280;64964;48.694;21.206;2023-06-19T00:23:51;97985.41;;;16.56;67.32
76195;BME280;64964;48.694;21.206;2023-06-19T00:26:16;97987.25;;;16.56;67.51
76195;BME280;64964;48.694;21.206;2023-06-19T00:28:42;97985.00;;;16.53;67.61
76195;BME280;64964;48.694;21.206;2023-06-19T00:31:09;97981.91;;;16.49;67.38
76195;BME280;64964;48.694;21.206;2023-06-19T00:33:36;97964.88;;;16.37;67.39
76195;BME280;64964;48.694;21.206;2023-06-19T00:36:08;97978.81;;;16.46;67.24
76195;BME280;64964;48.694;21.206;2023-06-19T00:38:34;97971.84;;;16.44;67.73
76195;BME280;64964;48.694;21.206;2023-06-19T00:40:59;97976.38;;;16.44;67.70
76195;BME280;64964;48.694;21.206;2023-06-19T00:43:25;97976.78;;;16.41;67.27
76195;BME280;64964;48.694;21.206;2023-06-19T00:45:50;97971.84;;;16.38;67.54
76195;BME280;64964;48.694;21.206;2023-06-19T00:48:15;97982.75;;;16.43;67.60
76195;BME280;64964;48.694;21.206;2023-06-19T00:50:41;97989.09;;;16.42;67.33
76195;BME280;64964;48.694;21.206;2023-06-19T00:53:06;97987.25;;;16.42;67.55
76195;BME280;64964;48.694;21.206;2023-06-19T00:55:33;97992.56;;;16.42;67.65
76195;BME280;64964;48.694;21.206;2023-06-19T00:57:59;97987.47;;;16.41;67.48
76195;BME280;64964;48.694;21.206;2023-06-19T01:00:25;97983.56;;;16.37;67.50
76195;BME280;64964;48.694;21.206;2023-06-19T01:02:50;97974.13;;;16.28;67.18
76195;BME280;64964;48.694;21.206;2023-06-19T01:05:16;97979.88;;;16.31;67.68
76195;BME280;64964;48.694;21.206;2023-06-19T01:07:47;97981.09;;;16.29;67.32
76195;BME280;64964;48.694;21.206;2023-06-19T01:10:18;97982.75;;;16.23;67.88
76195;BME280;64964;48.694;21.206;2023-06-19T01:13:00;97937.03;;;15.93;67.88
76195;BME280;64964;48.694;21.206;2023-06-19T01:15:27;97979.91;;;16.18;67.93
76195;BME280;64964;48.694;21.206;2023-06-19T01:17:54;97979.88;;;16.11;67.92
76195;BME280;64964;48.694;21.206;2023-06-19T01:20:20;97973.13;;;16.02;67.80
76195;BME280;64964;48.694;21.206;2023-06-19T01:22:45;97977.63;;;15.95;68.04
76195;BME280;64964;48.694;21.206;2023-06-19T01:25:11;97983.16;;;15.93;68.37
76195;BME280;64964;48.694;21.206;2023-06-19T01:27:39;97982.13;;;15.88;68.34
76195;BME280;64964;48.694;21.206;2023-06-19T01:30:05;97983.34;;;15.79;68.19
76195;BME280;64964;48.694;21.206;2023-06-19T01:32:48;97974.75;;;15.77;68.07
76195;BME280;64964;48.694;21.206;2023-06-19T01:35:19;97964.44;;;15.67;67.81
76195;BME280;64964;48.694;21.206;2023-06-19T01:37:47;97972.41;;;15.60;67.90
76195;BME280;64964;48.694;21.206;2023-06-19T01:40:14;97968.31;;;15.58;68.25
76195;BME280;64964;48.694;21.206;2023-06-19T01:42:40;97972.59;;;15.52;68.15
76195;BME280;64964;48.694;21.206;2023-06-19T01:45:07;97982.22;;;15.53;68.09
76195;BME280;64964;48.694;21.206;2023-06-19T01:47:33;97992.47;;;15.50;68.36
76195;BME280;64964;48.694;21.206;2023-06-19T01:49:58;97987.97;;;15.43;68.37
76195;BME280;64964;48.694;21.206;2023-06-19T01:52:24;97993.69;;;15.40;68.29
76195;BME280;64964;48.694;21.206;2023-06-19T01:54:50;97984.44;;;15.36;68.20
76195;BME280;64964;48.694;21.206;2023-06-19T01:57:15;97985.44;;;15.29;68.53
76195;BME280;64964;48.694;21.206;2023-06-19T01:59:41;97982.34;;;15.25;68.32
76195;BME280;64964;48.694;21.206;2023-06-19T02:02:06;97973.31;;;15.19;68.20
76195;BME280;64964;48.694;21.206;2023-06-19T02:04:32;97981.94;;;15.22;68.02
76195;BME280;64964;48.694;21.206;2023-06-19T02:06:58;97985.63;;;15.20;67.91
76195;BME280;64964;48.694;21.206;2023-06-19T02:09:23;97980.72;;;15.17;67.99
76195;BME280;64964;48.694;21.206;2023-06-19T02:11:48;97984.78;;;15.20;67.93
76195;BME280;64964;48.694;21.206;2023-06-19T02:14:14;97985.81;;;15.19;67.92
76195;BME280;64964;48.694;21.206;2023-06-19T02:16:39;97980.50;;;15.19;67.92
76195;BME280;64964;48.694;21.206;2023-06-19T02:19:11;97983.75;;;15.21;67.66
76195;BME280;64964;48.694;21.206;2023-06-19T02:21:37;97981.31;;;15.19;67.71
76195;BME280;64964;48.694;21.206;2023-06-19T02:24:02;97977.00;;;15.18;67.70
76195;BME280;64964;48.694;21.206;2023-06-19T02:26:28;97986.03;;;15.24;67.55
76195;BME280;64964;48.694;21.206;2023-06-19T02:28:55;97981.53;;;15.25;67.63
76195;BME280;64964;48.694;21.206;2023-06-19T02:31:21;97984.19;;;15.25;67.40
76195;BME280;64964;48.694;21.206;2023-06-19T02:33:47;97977.44;;;15.22;67.64
76195;BME280;64964;48.694;21.206;2023-06-19T02:36:15;97975.78;;;15.21;67.45
76195;BME280;64964;48.694;21.206;2023-06-19T02:38:47;97981.94;;;15.22;67.54
76195;BME280;64964;48.694;21.206;2023-06-19T02:41:13;97986.03;;;15.24;67.34
76195;BME280;64964;48.694;21.206;2023-06-19T02:43:40;97988.69;;;15.24;67.39
76195;BME280;64964;48.694;21.206;2023-06-19T02:46:06;97990.53;;;15.24;67.54
76195;BME280;64964;48.694;21.206;2023-06-19T02:48:31;97984.41;;;15.23;67.59
76195;BME280;64964;48.694;21.206;2023-06-19T02:50:57;97986.63;;;15.19;67.58
76195;BME280;64964;48.694;21.206;2023-06-19T02:53:22;97989.31;;;15.19;67.70
76195;BME280;64964;48.694;21.206;2023-06-19T02:55:47;97993.00;;;15.18;67.66
76195;BME280;64964;48.694;21.206;2023-06-19T02:58:13;97983.94;;;15.13;67.72
76195;BME280;64964;48.694;21.206;2023-06-19T03:00:38;97994.19;;;15.16;67.92
76195;BME280;64964;48.694;21.206;2023-06-19T03:03:04;98003.00;;;15.16;68.04
76195;BME280;64964;48.694;21.206;2023-06-19T03:05:29;98000.16;;;15.18;68.02
76195;BME280;64964;48.694;21.206;2023-06-19T03:07:54;97993.34;;;15.09;68.66
76195;BME280;64964;48.694;21.206;2023-06-19T03:10:20;97991.28;;;15.04;68.59
76195;BME280;64964;48.694;21.206;2023-06-19T03:12:45;98001.75;;;15.06;68.67
76195;BME280;64964;48.694;21.206;2023-06-19T03:15:10;98000.72;;;15.07;68.73
76195;BME280;64964;48.694;21.206;2023-06-19T03:17:36;97989.88;;;15.08;69.00
76195;BME280;64964;48.694;21.206;2023-06-19T03:20:01;97995.00;;;15.10;68.72
76195;BME280;64964;48.694;21.206;2023-06-19T03:22:27;97987.19;;;15.08;68.89
76195;BME280;64964;48.694;21.206;2023-06-19T03:24:52;98005.88;;;15.15;69.21
76195;BME280;64964;48.694;21.206;2023-06-19T03:27:18;98002.00;;;15.17;69.20
76195;BME280;64964;48.694;21.206;2023-06-19T03:29:43;97998.13;;;15.20;68.91
76195;BME280;64964;48.694;21.206;2023-06-19T03:32:08;97994.84;;;15.18;69.29
76195;BME280;64964;48.694;21.206;2023-06-19T03:34:34;97998.75;;;15.22;69.41
76195;BME280;64964;48.694;21.206;2023-06-19T03:37:59;98001.81;;;15.26;69.60
76195;BME280;64964;48.694;21.206;2023-06-19T03:40:24;98007.56;;;15.29;69.64
76195;BME280;64964;48.694;21.206;2023-06-19T03:42:49;98006.16;;;15.33;69.64
76195;BME280;64964;48.694;21.206;2023-06-19T03:45:15;98002.69;;;15.39;69.61
76195;BME280;64964;48.694;21.206;2023-06-19T03:47:40;98005.56;;;15.44;69.54
76195;BME280;64964;48.694;21.206;2023-06-19T03:50:06;97988.34;;;15.40;69.35
76195;BME280;64964;48.694;21.206;2023-06-19T03:52:37;97997.81;;;15.56;69.50
76195;BME280;64964;48.694;21.206;2023-06-19T03:55:03;97998.69;;;15.63;69.27
76195;BME280;64964;48.694;21.206;2023-06-19T03:57:29;97995.44;;;15.68;69.17
76195;BME280;64964;48.694;21.206;2023-06-19T03:59:54;97995.66;;;15.73;69.24
76195;BME280;64964;48.694;21.206;2023-06-19T04:02:20;97998.94;;;15.82;68.93
76195;BME280;64964;48.694;21.206;2023-06-19T04:04:45;97991.16;;;15.87;68.76
76195;BME280;64964;48.694;21.206;2023-06-19T04:07:10;97996.28;;;15.95;68.36
76195;BME280;64964;48.694;21.206;2023-06-19T04:09:36;98001.41;;;16.03;68.47
76195;BME280;64964;48.694;21.206;2023-06-19T04:12:01;97996.09;;;16.10;68.32
76195;BME280;64964;48.694;21.206;2023-06-19T04:14:27;97974.53;;;16.05;68.49
76195;BME280;64964;48.694;21.206;2023-06-19T04:16:52;97992.81;;;16.28;68.13
76195;BME280;64964;48.694;21.206;2023-06-19T04:19:17;97988.31;;;16.35;67.64
76195;BME280;64964;48.694;21.206;2023-06-19T04:21:43;97988.47;;;16.47;67.79
76195;BME280;64964;48.694;21.206;2023-06-19T04:24:08;97989.28;;;16.60;67.52
76195;BME280;64964;48.694;21.206;2023-06-19T04:26:34;97999.56;;;16.77;67.71
76195;BME280;64964;48.694;21.206;2023-06-19T04:29:00;98005.06;;;16.95;67.48
76195;BME280;64964;48.694;21.206;2023-06-19T04:31:26;97994.53;;;17.07;67.78
76195;BME280;64964;48.694;21.206;2023-06-19T04:33:51;98005.50;;;17.37;67.56
76195;BME280;64964;48.694;21.206;2023-06-19T04:36:17;98007.03;;;17.64;67.40
76195;BME280;64964;48.694;21.206;2023-06-19T04:38:44;98005.66;;;17.94;67.53
76195;BME280;64964;48.694;21.206;2023-06-19T04:41:10;98013.34;;;18.33;67.23
76195;BME280;64964;48.694;21.206;2023-06-19T04:43:35;98020.72;;;18.88;66.64
76195;BME280;64964;48.694;21.206;2023-06-19T04:46:01;98020.00;;;19.48;65.63
76195;BME280;64964;48.694;21.206;2023-06-19T04:48:29;98023.53;;;20.08;64.75
76195;BME280;64964;48.694;21.206;2023-06-19T04:50:55;98031.25;;;20.70;63.23
76195;BME280;64964;48.694;21.206;2023-06-19T04:53:21;98020.53;;;21.22;61.64
76195;BME280;64964;48.694;21.206;2023-06-19T04:55:46;98015.28;;;21.68;60.93
76195;BME280;64964;48.694;21.206;2023-06-19T04:58:12;98019.72;;;22.19;59.18
76195;BME280;64964;48.694;21.206;2023-06-19T05:00:37;98033.44;;;22.68;58.27
76195;BME280;64964;48.694;21.206;2023-06-19T05:03:02;98032.56;;;23.18;57.07
76195;BME280;64964;48.694;21.206;2023-06-19T05:05:28;98035.28;;;23.62;55.42
76195;BME280;64964;48.694;21.206;2023-06-19T05:07:53;98028.28;;;23.88;54.74
76195;BME280;64964;48.694;21.206;2023-06-19T05:10:19;98034.13;;;24.07;54.13
76195;BME280;64964;48.694;21.206;2023-06-19T05:12:44;98034.78;;;24.19;53.44
76195;BME280;64964;48.694;21.206;2023-06-19T05:15:10;98038.41;;;24.30;52.83
76195;BME280;64964;48.694;21.206;2023-06-19T05:17:36;98039.53;;;24.34;52.73
76195;BME280;64964;48.694;21.206;2023-06-19T05:20:04;98040.13;;;24.41;52.26
76195;BME280;64964;48.694;21.206;2023-06-19T05:22:32;98032.44;;;24.28;52.08
76195;BME280;64964;48.694;21.206;2023-06-19T05:24:59;98042.72;;;24.31;52.34
76195;BME280;64964;48.694;21.206;2023-06-19T05:27:24;98044.81;;;24.24;51.82
76195;BME280;64964;48.694;21.206;2023-06-19T05:29:49;98044.16;;;24.11;51.87
76195;BME280;64964;48.694;21.206;2023-06-19T05:32:15;98050.91;;;24.09;51.99
76195;BME280;64964;48.694;21.206;2023-06-19T05:34:40;98045.38;;;23.99;52.05
76195;BME280;64964;48.694;21.206;2023-06-19T05:37:06;98049.13;;;23.93;52.03
76195;BME280;64964;48.694;21.206;2023-06-19T05:39:31;98033.50;;;23.73;51.27
76195;BME280;64964;48.694;21.206;2023-06-19T05:41:56;98048.09;;;23.72;50.29
76195;BME280;64964;48.694;21.206;2023-06-19T05:44:22;98049.50;;;23.57;51.44
76195;BME280;64964;48.694;21.206;2023-06-19T05:46:47;98046.41;;;23.49;52.00
76195;BME280;64964;48.694;21.206;2023-06-19T05:49:12;98042.38;;;23.46;51.49
76195;BME280;64964;48.694;21.206;2023-06-19T05:51:38;98047.13;;;23.39;50.74
76195;BME280;64964;48.694;21.206;2023-06-19T05:54:03;98047.81;;;23.29;51.39
76195;BME280;64964;48.694;21.206;2023-06-19T05:56:30;98053.44;;;23.28;51.79
76195;BME280;64964;48.694;21.206;2023-06-19T05:58:55;98046.25;;;23.33;52.07
76195;BME280;64964;48.694;21.206;2023-06-19T06:01:21;98055.03;;;23.46;51.72
76195;BME280;64964;48.694;21.206;2023-06-19T06:03:46;98056.47;;;23.53;52.06
76195;BME280;64964;48.694;21.206;2023-06-19T06:06:11;98054.06;;;23.57;51.75
76195;BME280;64964;48.694;21.206;2023-06-19T06:08:37;98052.19;;;23.57;50.49
76195;BME280;64964;48.694;21.206;2023-06-19T06:11:02;98050.03;;;23.54;50.73
76195;BME280;64964;48.694;21.206;2023-06-19T06:13:28;98054.66;;;23.59;50.72
76195;BME280;64964;48.694;21.206;2023-06-19T06:15:53;98060.38;;;23.63;51.44
76195;BME280;64964;48.694;21.206;2023-06-19T06:18:19;98056.19;;;23.72;50.41
76195;BME280;64964;48.694;21.206;2023-06-19T06:20:44;98061.59;;;23.72;51.01
76195;BME280;64964;48.694;21.206;2023-06-19T06:23:10;98056.88;;;23.62;49.62
76195;BME280;64964;48.694;21.206;2023-06-19T06:25:35;98063.75;;;23.53;50.53
76195;BME280;64964;48.694;21.206;2023-06-19T06:28:00;98062.44;;;23.55;50.65
76195;BME280;64964;48.694;21.206;2023-06-19T06:30:26;98062.25;;;23.62;51.21
76195;BME280;64964;48.694;21.206;2023-06-19T06:32:53;98062.94;;;23.74;49.74
76195;BME280;64964;48.694;21.206;2023-06-19T06:35:18;98059.97;;;23.71;50.19
76195;BME280;64964;48.694;21.206;2023-06-19T06:37:43;98067.03;;;23.77;50.65
76195;BME280;64964;48.694;21.206;2023-06-19T06:40:11;98067.16;;;23.87;50.22
76195;BME280;64964;48.694;21.206;2023-06-19T06:42:37;98074.06;;;24.00;50.38
76195;BME280;64964;48.694;21.206;2023-06-19T06:45:06;98078.78;;;24.15;50.26
76195;BME280;64964;48.694;21.206;2023-06-19T06:47:34;98081.59;;;24.25;49.88
76195;BME280;64964;48.694;21.206;2023-06-19T06:50:00;98078.97;;;24.35;49.69
76195;BME280;64964;48.694;21.206;2023-06-19T06:52:25;98083.16;;;24.48;50.07
76195;BME280;64964;48.694;21.206;2023-06-19T06:54:50;98084.13;;;24.64;49.35
76195;BME280;64964;48.694;21.206;2023-06-19T06:57:16;98083.69;;;24.77;49.43
76195;BME280;64964;48.694;21.206;2023-06-19T06:59:42;98071.56;;;24.84;48.35
76195;BME280;64964;48.694;21.206;2023-06-19T07:02:07;98071.09;;;24.98;47.28
76195;BME280;64964;48.694;21.206;2023-06-19T07:04:33;98069.22;;;24.98;47.26
76195;BME280;64964;48.694;21.206;2023-06-19T07:06:58;98066.00;;;25.01;47.03
76195;BME280;64964;48.694;21.206;2023-06-19T07:09:24;98060.59;;;25.01;46.25
76195;BME280;64964;48.694;21.206;2023-06-19T07:11:49;98067.09;;;25.05;47.17
76195;BME280;64964;48.694;21.206;2023-06-19T07:14:15;98062.84;;;25.15;47.26
76195;BME280;64964;48.694;21.206;2023-06-19T07:16:44;98067.53;;;25.29;47.39
76195;BME280;64964;48.694;21.206;2023-06-19T07:19:10;98069.75;;;25.38;46.63
76195;BME280;64964;48.694;21.206;2023-06-19T07:21:36;98067.31;;;25.41;46.68
76195;BME280;64964;48.694;21.206;2023-06-19T07:24:02;98074.69;;;25.56;45.85
76195;BME280;64964;48.694;21.206;2023-06-19T07:26:27;98060.88;;;25.57;46.15
76195;BME280;64964;48.694;21.206;2023-06-19T07:28:52;98065.56;;;25.72;45.34
76195;BME280;64964;48.694;21.206;2023-06-19T07:31:18;98071.28;;;25.81;43.88
76195;BME280;64964;48.694;21.206;2023-06-19T07:33:43;98077.81;;;25.85;44.72
76195;BME280;64964;48.694;21.206;2023-06-19T07:36:09;98074.06;;;25.96;45.13
76195;BME280;64964;48.694;21.206;2023-06-19T07:38:39;98073.81;;;26.13;45.10
76195;BME280;64964;48.694;21.206;2023-06-19T07:41:04;98071.13;;;26.28;44.61
76195;BME280;64964;48.694;21.206;2023-06-19T07:43:31;98068.16;;;26.40;42.74
76195;BME280;64964;48.694;21.206;2023-06-19T07:45:56;98075.47;;;26.40;43.90
76195;BME280;64964;48.694;21.206;2023-06-19T07:48:22;98074.41;;;26.46;42.94
76195;BME280;64964;48.694;21.206;2023-06-19T07:50:48;98082.00;;;26.54;43.45
76195;BME280;64964;48.694;21.206;2023-06-19T07:53:13;98075.78;;;26.69;43.58
76195;BME280;64964;48.694;21.206;2023-06-19T07:55:39;98080.13;;;26.80;42.88
76195;BME280;64964;48.694;21.206;2023-06-19T07:58:04;98067.88;;;26.88;43.57
76195;BME280;64964;48.694;21.206;2023-06-19T08:00:29;98069.22;;;26.95;41.12
76195;BME280;64964;48.694;21.206;2023-06-19T08:02:55;98067.31;;;26.96;41.19
76195;BME280;64964;48.694;21.206;2023-06-19T08:05:21;98069.78;;;27.02;40.73
76195;BME280;64964;48.694;21.206;2023-06-19T08:07:47;98064.88;;;27.04;39.81
76195;BME280;64964;48.694;21.206;2023-06-19T08:10:12;98070.28;;;27.04;41.00
76195;BME280;64964;48.694;21.206;2023-06-19T08:12:38;98071.13;;;27.15;42.32
76195;BME280;64964;48.694;21.206;2023-06-19T08:15:03;98070.84;;;27.22;39.88
76195;BME280;64964;48.694;21.206;2023-06-19T08:17:29;98073.84;;;26.95;38.88
76195;BME280;64964;48.694;21.206;2023-06-19T08:19:54;98067.91;;;26.72;39.89
76195;BME280;64964;48.694;21.206;2023-06-19T08:22:20;98072.53;;;26.62;40.65
76195;BME280;64964;48.694;21.206;2023-06-19T08:24:45;98069.53;;;26.53;39.68
76195;BME280;64964;48.694;21.206;2023-06-19T08:27:10;98058.69;;;26.43;39.61
76195;BME280;64964;48.694;21.206;2023-06-19T08:29:36;98079.06;;;26.50;40.51
76195;BME280;64964;48.694;21.206;2023-06-19T08:32:01;98082.56;;;26.66;40.43
76195;BME280;64964;48.694;21.206;2023-06-19T08:34:27;98076.84;;;26.63;39.50
76195;BME280;64964;48.694;21.206;2023-06-19T08:36:53;98072.81;;;26.60;40.15
76195;BME280;64964;48.694;21.206;2023-06-19T08:39:18;98069.28;;;26.60;39.98
76195;BME280;64964;48.694;21.206;2023-06-19T08:41:45;98070.09;;;26.55;40.53
76195;BME280;64964;48.694;21.206;2023-06-19T08:44:10;98072.22;;;26.43;40.10
76195;BME280;64964;48.694;21.206;2023-06-19T08:46:36;98074.38;;;26.41;40.73
76195;BME280;64964;48.694;21.206;2023-06-19T08:49:07;98070.06;;;26.45;40.37
76195;BME280;64964;48.694;21.206;2023-06-19T08:51:35;98068.16;;;26.40;40.79
76195;BME280;64964;48.694;21.206;2023-06-19T08:54:03;98069.78;;;26.41;40.93
76195;BME280;64964;48.694;21.206;2023-06-19T08:56:29;98076.06;;;26.47;40.89
76195;BME280;64964;48.694;21.206;2023-06-19T08:59:08;98070.88;;;26.35;39.52
76195;BME280;64964;48.694;21.206;2023-06-19T09:01:34;98061.63;;;26.21;40.39
76195;BME280;64964;48.694;21.206;2023-06-19T09:03:59;98073.25;;;26.01;40.53
76195;BME280;64964;48.694;21.206;2023-06-19T09:06:24;98068.59;;;25.86;41.40
76195;BME280;64964;48.694;21.206;2023-06-19T09:08:59;98072.88;;;25.72;40.62
76195;BME280;64964;48.694;21.206;2023-06-19T09:11:25;98076.09;;;25.64;41.49
76195;BME280;64964;48.694;21.206;2023-06-19T09:13:56;98070.88;;;25.52;41.20
76195;BME280;64964;48.694;21.206;2023-06-19T09:16:22;98069.81;;;25.58;42.19
76195;BME280;64964;48.694;21.206;2023-06-19T09:18:49;98059.03;;;25.68;42.38
76195;BME280;64964;48.694;21.206;2023-06-19T09:21:21;98063.72;;;25.83;42.21
76195;BME280;64964;48.694;21.206;2023-06-19T09:23:50;98059.44;;;26.02;41.34
76195;BME280;64964;48.694;21.206;2023-06-19T09:26:17;98062.66;;;25.99;41.41
76195;BME280;64964;48.694;21.206;2023-06-19T09:28:44;98068.94;;;26.10;41.75
76195;BME280;64964;48.694;21.206;2023-06-19T09:31:10;98062.72;;;26.20;41.72
76195;BME280;64964;48.694;21.206;2023-06-19T09:33:36;98051.34;;;26.28;41.69
76195;BME280;64964;48.694;21.206;2023-06-19T09:36:03;98073.91;;;26.59;42.42
76195;BME280;64964;48.694;21.206;2023-06-19T09:38:31;98062.19;;;26.79;40.92
76195;BME280;64964;48.694;21.206;2023-06-19T09:41:00;98041.56;;;26.83;41.13
76195;BME280;64964;48.694;21.206;2023-06-19T09:43:46;98054.06;;;27.10;38.75
76195;BME280;64964;48.694;21.206;2023-06-19T09:46:14;98055.88;;;27.29;40.04
76195;BME280;64964;48.694;21.206;2023-06-19T09:48:43;98023.06;;;27.21;39.58
76195;BME280;64964;48.694;21.206;2023-06-19T09:51:17;98052.56;;;27.48;39.96
76195;BME280;64964;48.694;21.206;2023-06-19T09:53:45;98047.66;;;27.55;39.84
76195;BME280;64964;48.694;21.206;2023-06-19T09:56:12;98045.66;;;27.71;38.30
76195;BME280;64964;48.694;21.206;2023-06-19T09:58:38;98041.31;;;27.75;38.08
76195;BME280;64964;48.694;21.206;2023-06-19T10:01:04;98037.25;;;27.72;38.10
76195;BME280;64964;48.694;21.206;2023-06-19T10:03:32;98033.97;;;27.70;37.35
76195;BME280;64964;48.694;21.206;2023-06-19T10:05:59;98043.75;;;27.71;37.80
76195;BME280;64964;48.694;21.206;2023-06-19T10:08:40;98043.78;;;27.66;37.67
76195;BME280;64964;48.694;21.206;2023-06-19T10:11:06;98037.00;;;27.69;37.51
76195;BME280;64964;48.694;21.206;2023-06-19T10:13:34;98040.59;;;27.54;37.00
76195;BME280;64964;48.694;21.206;2023-06-19T10:16:00;98037.38;;;27.42;37.48
76195;BME280;64964;48.694;21.206;2023-06-19T10:18:25;98022.78;;;27.27;37.39
76195;BME280;64964;48.694;21.206;2023-06-19T10:20:53;98032.81;;;27.27;37.65
76195;BME280;64964;48.694;21.206;2023-06-19T10:23:25;98029.06;;;27.18;37.04
76195;BME280;64964;48.694;21.206;2023-06-19T10:28:29;98027.94;;;27.08;36.57
76195;BME280;64964;48.694;21.206;2023-06-19T10:33:26;98017.44;;;26.87;37.33
76195;BME280;64964;48.694;21.206;2023-06-19T10:35:52;98030.97;;;26.92;37.92
76195;BME280;64964;48.694;21.206;2023-06-19T10:38:17;98013.63;;;26.88;38.13
76195;BME280;64964;48.694;21.206;2023-06-19T10:40:44;98021.47;;;26.99;37.66
76195;BME280;64964;48.694;21.206;2023-06-19T10:43:11;98021.22;;;27.01;37.94
76195;BME280;64964;48.694;21.206;2023-06-19T10:45:36;98028.50;;;27.00;37.41
76195;BME280;64964;48.694;21.206;2023-06-19T10:48:02;98027.75;;;26.90;37.88
76195;BME280;64964;48.694;21.206;2023-06-19T10:50:28;98028.56;;;26.85;38.81
76195;BME280;64964;48.694;21.206;2023-06-19T10:52:54;98037.81;;;26.84;39.52
76195;BME280;64964;48.694;21.206;2023-06-19T10:55:22;98045.91;;;26.79;39.48
76195;BME280;64964;48.694;21.206;2023-06-19T10:57:49;98042.69;;;26.72;40.00
76195;BME280;64964;48.694;21.206;2023-06-19T11:00:40;98051.09;;;26.60;38.76
76195;BME280;64964;48.694;21.206;2023-06-19T11:03:06;98053.00;;;26.60;39.35
76195;BME280;64964;48.694;21.206;2023-06-19T11:05:31;98050.84;;;26.51;39.08
76195;BME280;64964;48.694;21.206;2023-06-19T11:07:58;98048.06;;;26.41;39.49
76195;BME280;64964;48.694;21.206;2023-06-19T11:10:25;98041.31;;;26.33;39.49
76195;BME280;64964;48.694;21.206;2023-06-19T11:12:58;98041.31;;;26.23;39.80
76195;BME280;64964;48.694;21.206;2023-06-19T11:15:31;98055.13;;;26.22;40.04
76195;BME280;64964;48.694;21.206;2023-06-19T11:17:58;98050.53;;;26.22;39.97
76195;BME280;64964;48.694;21.206;2023-06-19T11:20:23;98030.19;;;26.15;39.85
76195;BME280;64964;48.694;21.206;2023-06-19T11:22:54;98033.44;;;26.17;39.74
76195;BME280;64964;48.694;21.206;2023-06-19T11:25:20;98043.22;;;26.18;40.04
76195;BME280;64964;48.694;21.206;2023-06-19T11:27:45;98036.69;;;26.14;40.72
76195;BME280;64964;48.694;21.206;2023-06-19T11:30:29;98043.72;;;26.15;40.16
76195;BME280;64964;48.694;21.206;2023-06-19T11:32:55;98052.94;;;26.14;41.54
76195;BME280;64964;48.694;21.206;2023-06-19T11:35:21;98048.34;;;26.14;40.60
76195;BME280;64964;48.694;21.206;2023-06-19T11:37:47;98041.84;;;26.15;40.17
76195;BME280;64964;48.694;21.206;2023-06-19T11:40:13;98033.44;;;26.17;39.65
76195;BME280;64964;48.694;21.206;2023-06-19T11:42:52;98040.22;;;26.14;39.01
76195;BME280;64964;48.694;21.206;2023-06-19T11:45:17;98036.69;;;26.14;39.27
76195;BME280;64964;48.694;21.206;2023-06-19T11:47:44;98033.72;;;26.10;38.67
76195;BME280;64964;48.694;21.206;2023-06-19T11:50:10;98028.81;;;26.12;38.92
76195;BME280;64964;48.694;21.206;2023-06-19T11:52:36;98030.47;;;26.18;38.97
76195;BME280;64964;48.694;21.206;2023-06-19T11:55:02;98033.97;;;26.29;39.67
76195;BME280;64964;48.694;21.206;2023-06-19T11:57:27;98029.66;;;26.38;39.02
76195;BME280;64964;48.694;21.206;2023-06-19T11:59:53;98025.59;;;26.36;38.05
76195;BME280;64964;48.694;21.206;2023-06-19T12:02:18;98028.84;;;26.32;38.06
76195;BME280;64964;48.694;21.206;2023-06-19T12:04:43;98023.13;;;26.24;38.00
76195;BME280;64964;48.694;21.206;2023-06-19T12:07:09;98031.03;;;26.25;38.68
76195;BME280;64964;48.694;21.206;2023-06-19T12:09:34;98015.84;;;26.29;38.92
76195;BME280;64964;48.694;21.206;2023-06-19T12:12:00;98025.06;;;26.39;38.97
76195;BME280;64964;48.694;21.206;2023-06-19T12:14:26;98023.44;;;26.43;38.52
76195;BME280;64964;48.694;21.206;2023-06-19T12:16:51;98022.66;;;26.47;39.22
76195;BME280;64964;48.694;21.206;2023-06-19T12:19:17;98009.34;;;26.56;39.24
76195;BME280;64964;48.694;21.206;2023-06-19T12:21:42;98013.94;;;26.71;38.94
76195;BME280;64964;48.694;21.206;2023-06-19T12:24:08;98009.06;;;26.73;38.84
76195;BME280;64964;48.694;21.206;2023-06-19T12:26:35;98016.63;;;26.71;36.88
76195;BME280;64964;48.694;21.206;2023-06-19T12:29:02;98015.81;;;26.70;37.08
76195;BME280;64964;48.694;21.206;2023-06-19T12:31:29;98000.63;;;26.74;37.54
76195;BME280;64964;48.694;21.206;2023-06-19T12:33:54;97990.31;;;26.81;37.90
76195;BME280;64964;48.694;21.206;2023-06-19T12:36:19;98012.50;;;27.09;38.67
76195;BME280;64964;48.694;21.206;2023-06-19T12:38:45;98003.00;;;27.22;38.61
76195;BME280;64964;48.694;21.206;2023-06-19T12:41:12;98004.56;;;27.33;37.30
76195;BME280;64964;48.694;21.206;2023-06-19T12:43:37;98001.84;;;27.38;38.37
76195;BME280;64964;48.694;21.206;2023-06-19T12:46:03;97984.72;;;27.38;37.50
76195;BME280;64964;48.694;21.206;2023-06-19T12:48:28;98003.94;;;27.51;37.53
76195;BME280;64964;48.694;21.206;2023-06-19T12:50:53;98001.72;;;27.59;37.65
76195;BME280;64964;48.694;21.206;2023-06-19T12:53:19;98006.59;;;27.62;38.11